createdAt,value
2023-06-09T00:02:05.045Z,16
2023-06-09T00:04:35.710Z,18
2023-06-09T00:07:06.121Z,16
2023-06-09T00:09:36.878Z,16
2023-06-09T00:12:07.492Z,16
2023-06-09T00:14:38.441Z,20
2023-06-09T00:17:07.518Z,20
2023-06-09T00:19:38.148Z,22
2023-06-09T00:22:09.812Z,20
2023-06-09T00:24:40.845Z,20
2023-06-09T00:27:12.184Z,24
2023-06-09T00:29:43.573Z,20
2023-06-09T00:32:15.702Z,21
2023-06-09T00:34:46.632Z,19
2023-06-09T00:37:15.945Z,20
2023-06-09T00:39:46.647Z,20
2023-06-09T00:42:17.290Z,24
2023-06-09T00:44:48.390Z,24
2023-06-09T00:47:19.342Z,24
2023-06-09T00:49:49.969Z,24
2023-06-09T00:52:20.794Z,24
2023-06-09T00:54:51.923Z,16
2023-06-09T00:57:22.864Z,24
2023-06-09T00:59:53.481Z,24
2023-06-09T01:02:26.060Z,21
2023-06-09T01:04:57.191Z,28
2023-06-09T01:07:27.391Z,32
2023-06-09T01:09:58.181Z,28
2023-06-09T01:12:30.598Z,28
2023-06-09T01:15:01.635Z,25
2023-06-09T01:17:32.738Z,24
2023-06-09T01:20:03.696Z,28
2023-06-09T01:22:34.866Z,24
2023-06-09T01:25:05.811Z,24
2023-06-09T01:27:36.730Z,24
2023-06-09T01:30:07.426Z,20
2023-06-09T01:32:38.441Z,24
2023-06-09T01:35:09.112Z,20
2023-06-09T01:37:39.687Z,24
2023-06-09T01:40:10.899Z,24
2023-06-09T01:42:41.668Z,24
2023-06-09T01:45:12.758Z,20
2023-06-09T01:47:43.522Z,24
2023-06-09T01:50:14.547Z,20
2023-06-09T01:52:45.685Z,27
2023-06-09T01:55:16.594Z,24
2023-06-09T01:57:47.192Z,28
2023-06-09T02:00:18.214Z,28
2023-06-09T02:02:50.003Z,28
2023-06-09T02:05:20.857Z,28
2023-06-09T02:07:51.981Z,24
2023-06-09T02:10:22.750Z,24
2023-06-09T02:12:53.780Z,29
2023-06-09T02:15:24.770Z,28
2023-06-09T02:17:55.589Z,32
2023-06-09T02:20:26.605Z,28
2023-06-09T02:22:58.064Z,28
2023-06-09T02:25:28.755Z,25
2023-06-09T02:27:59.717Z,32
2023-06-09T02:30:30.631Z,28
2023-06-09T02:33:01.563Z,28
2023-06-09T02:35:32.364Z,28
2023-06-09T02:38:03.062Z,30
2023-06-09T02:40:34.161Z,25
2023-06-09T02:43:05.011Z,24
2023-06-09T02:45:35.659Z,24
2023-06-09T02:48:06.640Z,27
2023-06-09T02:50:37.350Z,27
2023-06-09T02:53:08.279Z,28
2023-06-09T02:55:39.230Z,24
2023-06-09T02:58:09.891Z,28
2023-06-09T03:00:40.896Z,24
2023-06-09T03:03:11.625Z,20
2023-06-09T03:05:42.726Z,23
2023-06-09T03:08:13.531Z,20
2023-06-09T03:10:45.871Z,20
2023-06-09T03:13:16.643Z,20
2023-06-09T03:15:47.280Z,25
2023-06-09T03:18:18.238Z,24
2023-06-09T03:20:49.056Z,22
2023-06-09T03:23:20.030Z,24
2023-06-09T03:25:51.072Z,20
2023-06-09T03:28:22.046Z,24
2023-06-09T03:30:52.950Z,25
2023-06-09T03:33:23.743Z,27
2023-06-09T03:35:54.121Z,22
2023-06-09T03:38:24.788Z,23
2023-06-09T03:40:56.098Z,24
2023-06-09T03:43:27.086Z,24
2023-06-09T03:45:58.137Z,24
2023-06-09T03:48:29.784Z,24
2023-06-09T03:51:00.915Z,21
2023-06-09T03:53:30.174Z,24
2023-06-09T03:56:01.048Z,28
2023-06-09T03:58:31.751Z,24
2023-06-09T04:01:02.868Z,28
2023-06-09T04:03:33.759Z,24
2023-06-09T04:06:04.903Z,25
2023-06-09T04:08:34.149Z,27
2023-06-09T04:11:05.094Z,28
2023-06-09T04:13:35.737Z,25
2023-06-09T04:16:06.892Z,32
2023-06-09T04:18:37.855Z,36
2023-06-09T04:21:08.199Z,31
2023-06-09T04:23:39.170Z,32
2023-06-09T04:26:10.005Z,32
2023-06-09T04:28:41.137Z,35
2023-06-09T04:31:12.202Z,40
2023-06-09T04:33:43.313Z,40
2023-06-09T04:36:14.056Z,37
2023-06-09T04:38:44.544Z,36
2023-06-09T04:41:15.727Z,32
2023-06-09T04:43:46.722Z,34
2023-06-09T04:46:17.900Z,30
2023-06-09T04:48:49.705Z,28
2023-06-09T04:51:20.537Z,31
2023-06-09T04:53:51.489Z,28
2023-06-09T04:56:22.563Z,32
2023-06-09T04:58:55.368Z,38
2023-06-09T05:01:26.270Z,32
2023-06-09T05:03:55.158Z,40
2023-06-09T05:06:26.173Z,39
2023-06-09T05:08:56.879Z,32
2023-06-09T05:11:27.517Z,35
2023-06-09T05:13:58.320Z,36
2023-06-09T05:16:29.264Z,36
2023-06-09T05:19:00.872Z,40
2023-06-09T05:21:31.974Z,36
2023-06-09T05:24:02.937Z,36
2023-06-09T05:26:36.738Z,36
2023-06-09T05:29:12.392Z,38
2023-06-09T05:31:43.312Z,36
2023-06-09T05:34:14.048Z,37
2023-06-09T05:36:44.565Z,36
2023-06-09T05:39:15.184Z,34
2023-06-09T05:41:45.701Z,34
2023-06-09T05:44:15.652Z,36
2023-06-09T05:46:46.347Z,36
2023-06-09T05:49:16.763Z,36
2023-06-09T05:51:47.581Z,35
2023-06-09T05:54:18.633Z,38
2023-06-09T05:56:51.933Z,36
2023-06-09T05:59:22.434Z,33
2023-06-09T06:01:53.032Z,36
2023-06-09T06:04:23.826Z,36
2023-06-09T06:06:58.676Z,38
2023-06-09T06:09:30.088Z,36
2023-06-09T06:12:00.780Z,40
2023-06-09T06:14:31.473Z,40
2023-06-09T06:17:04.466Z,36
2023-06-09T06:19:37.247Z,36
2023-06-09T06:22:07.917Z,44
2023-06-09T06:24:39.072Z,41
2023-06-09T06:27:09.806Z,40
2023-06-09T06:29:40.349Z,40
2023-06-09T06:32:13.225Z,40
2023-06-09T06:34:43.650Z,40
2023-06-09T06:37:14.435Z,44
2023-06-09T06:39:45.849Z,40
2023-06-09T06:42:16.405Z,45
2023-06-09T06:44:46.817Z,44
2023-06-09T06:47:17.641Z,44
2023-06-09T06:49:48.246Z,44
2023-06-09T06:52:19.139Z,44
2023-06-09T06:54:49.786Z,44
2023-06-09T06:57:20.589Z,48
2023-06-09T06:59:51.119Z,48
2023-06-09T07:02:22.117Z,48
2023-06-09T07:04:51.174Z,48
2023-06-09T07:07:22.093Z,47
2023-06-09T07:09:52.707Z,48
2023-06-09T07:12:23.683Z,48
2023-06-09T07:17:23.763Z,48
2023-06-09T07:19:55.821Z,49
2023-06-09T07:22:26.499Z,48
2023-06-09T07:24:59.027Z,48
2023-06-09T07:27:28.121Z,51
2023-06-09T07:30:00.472Z,48
2023-06-09T07:32:31.793Z,48
2023-06-09T07:35:04.331Z,51
2023-06-09T07:37:35.569Z,48
2023-06-09T07:40:17.794Z,48
2023-06-09T07:42:37.297Z,49
2023-06-09T07:45:07.121Z,51
2023-06-09T07:47:40.698Z,48
2023-06-09T07:50:11.490Z,48
2023-06-09T07:52:42.663Z,49
2023-06-09T07:55:15.586Z,52
2023-06-09T07:57:44.951Z,49
2023-06-09T08:00:15.551Z,55
2023-06-09T08:02:46.112Z,60
2023-06-09T08:05:20.015Z,57
2023-06-09T08:07:50.422Z,60
2023-06-09T08:10:20.869Z,59
2023-06-09T08:12:52.024Z,58
2023-06-09T08:15:22.867Z,60
2023-06-09T08:17:53.600Z,54
2023-06-09T08:20:24.593Z,54
2023-06-09T08:22:58.169Z,60
2023-06-09T08:25:28.857Z,61
2023-06-09T08:28:00.234Z,54
2023-06-09T08:30:39.915Z,56
2023-06-09T08:33:11.393Z,61
2023-06-09T08:35:42.228Z,58
2023-06-09T08:38:13.008Z,57
2023-06-09T08:40:51.874Z,61
2023-06-09T08:43:26.674Z,59
2023-06-09T08:45:58.531Z,57
2023-06-09T08:48:29.380Z,61
2023-06-09T08:51:02.010Z,54
2023-06-09T08:53:34.261Z,62
2023-06-09T08:56:05.026Z,65
2023-06-09T08:58:37.119Z,58
2023-06-09T09:01:08.528Z,63
2023-06-09T09:03:38.876Z,59
2023-06-09T09:06:15.584Z,55
2023-06-09T09:08:47.141Z,64
2023-06-09T09:11:17.648Z,56
2023-06-09T09:13:49.509Z,58
2023-06-09T09:16:22.851Z,58
2023-06-09T09:18:58.146Z,60
2023-06-09T09:21:30.400Z,57
2023-06-09T09:24:05.826Z,56
2023-06-09T09:26:41.306Z,59
2023-06-09T09:29:10.239Z,59
2023-06-09T09:31:44.187Z,60
2023-06-09T09:34:17.591Z,67
2023-06-09T09:36:48.527Z,60
2023-06-09T09:39:20.530Z,68
2023-06-09T09:41:52.468Z,60
2023-06-09T09:44:23.017Z,59
2023-06-09T09:46:54.839Z,63
2023-06-09T09:49:28.794Z,68
2023-06-09T09:51:59.483Z,67
2023-06-09T09:54:32.837Z,65
2023-06-09T09:57:03.642Z,75
2023-06-09T09:59:34.903Z,80
2023-06-09T10:02:05.568Z,100
2023-06-09T10:04:38.714Z,94
2023-06-09T10:07:09.899Z,99
2023-06-09T10:09:44.962Z,79
2023-06-09T10:12:18.618Z,86
2023-06-09T10:14:49.857Z,85
2023-06-09T10:17:21.114Z,68
2023-06-09T10:19:51.962Z,76
2023-06-09T10:22:23.163Z,84
2023-06-09T10:24:53.793Z,83
2023-06-09T10:27:26.038Z,75
2023-06-09T10:29:56.964Z,83
2023-06-09T10:32:29.710Z,92
2023-06-09T10:35:00.536Z,103
2023-06-09T10:37:31.457Z,90
2023-06-09T10:40:01.915Z,96
2023-06-09T10:42:31.392Z,102
2023-06-09T10:45:03.350Z,103
2023-06-09T10:47:47.225Z,114
2023-06-09T10:50:22.744Z,108
2023-06-09T10:52:53.692Z,98
2023-06-09T10:55:24.451Z,111
2023-06-09T10:57:55.861Z,116
2023-06-09T11:00:30.647Z,112
2023-06-09T11:02:59.679Z,109
2023-06-09T11:05:29.957Z,99
2023-06-09T11:08:00.370Z,101
2023-06-09T11:10:31.708Z,118
2023-06-09T11:13:02.342Z,109
2023-06-09T11:15:36.474Z,112
2023-06-09T11:18:06.830Z,121
2023-06-09T11:20:41.381Z,112
2023-06-09T11:23:16.608Z,108
2023-06-09T11:25:48.058Z,93
2023-06-09T11:28:18.346Z,99
2023-06-09T11:30:52.799Z,99
2023-06-09T11:33:21.899Z,100
2023-06-09T11:35:52.430Z,91
2023-06-09T11:38:26.531Z,96
2023-06-09T11:41:03.336Z,76
2023-06-09T11:43:38.540Z,84
2023-06-09T11:46:09.490Z,85
2023-06-09T11:48:44.227Z,67
2023-06-09T11:51:13.776Z,77
2023-06-09T11:53:44.411Z,79
2023-06-09T11:56:15.090Z,89
2023-06-09T11:58:52.198Z,83
2023-06-09T12:01:23.109Z,88
2023-06-09T12:03:53.911Z,86
2023-06-09T12:06:26.955Z,70
2023-06-09T12:08:56.603Z,71
2023-06-09T12:11:31.256Z,81
2023-06-09T12:14:03.538Z,73
2023-06-09T12:16:34.607Z,64
2023-06-09T12:19:05.159Z,65
2023-06-09T12:21:44.995Z,67
2023-06-09T12:24:15.499Z,64
2023-06-09T12:26:48.394Z,57
2023-06-09T12:29:19.034Z,60
2023-06-09T12:31:53.654Z,56
2023-06-09T12:34:28.482Z,54
2023-06-09T12:36:59.942Z,51
2023-06-09T12:39:30.904Z,48
2023-06-09T12:42:08.294Z,51
2023-06-09T12:44:39.140Z,55
2023-06-09T12:47:18.603Z,48
2023-06-09T12:49:53.425Z,47
2023-06-09T12:52:24.228Z,46
2023-06-09T12:55:10.005Z,48
2023-06-09T12:57:29.258Z,48
2023-06-09T13:00:11.558Z,52
2023-06-09T13:02:31.173Z,52
2023-06-09T13:05:04.168Z,48
2023-06-09T13:07:34.895Z,51
2023-06-09T13:10:05.745Z,50
2023-06-09T13:12:36.326Z,50
2023-06-09T13:15:07.350Z,49
2023-06-09T13:17:38.136Z,48
2023-06-09T13:20:08.815Z,88
2023-06-09T13:22:39.759Z,75
2023-06-09T13:25:10.296Z,48
2023-06-09T13:27:45.538Z,49
2023-06-09T13:30:26.265Z,57
2023-06-09T13:32:57.537Z,48
2023-06-09T13:35:26.723Z,48
2023-06-09T13:37:57.729Z,44
2023-06-09T13:40:30.622Z,48
2023-06-09T13:43:03.330Z,48
2023-06-09T13:45:34.501Z,48
2023-06-09T13:48:06.268Z,52
2023-06-09T13:50:36.824Z,48
2023-06-09T13:53:07.688Z,44
2023-06-09T13:55:38.363Z,48
2023-06-09T13:58:09.368Z,48
2023-06-09T14:00:40.202Z,40
2023-06-09T14:03:11.002Z,43
2023-06-09T14:05:41.632Z,44
2023-06-09T14:08:12.286Z,40
2023-06-09T14:10:45.641Z,40
2023-06-09T14:13:16.424Z,40
2023-06-09T14:15:47.064Z,44
2023-06-09T14:18:16.333Z,32
2023-06-09T14:20:46.736Z,35
2023-06-09T14:23:17.248Z,32
2023-06-09T14:25:47.441Z,32
2023-06-09T14:28:16.784Z,28
2023-06-09T14:30:48.174Z,32
2023-06-09T14:33:21.508Z,32
2023-06-09T14:35:51.298Z,31
2023-06-09T14:38:21.749Z,32
2023-06-09T14:40:54.401Z,29
2023-06-09T14:43:23.455Z,26
2023-06-09T14:45:54.092Z,28
2023-06-09T14:48:27.252Z,31
2023-06-09T14:51:04.626Z,28
2023-06-09T14:53:35.378Z,39
2023-06-09T14:56:06.155Z,28
2023-06-09T14:58:35.473Z,28
2023-06-09T15:01:05.644Z,37
2023-06-09T15:03:38.219Z,28
2023-06-09T15:06:09.333Z,26
2023-06-09T15:08:39.518Z,24
2023-06-09T15:11:10.236Z,32
2023-06-09T15:13:41.944Z,20
2023-06-09T15:16:13.010Z,23
2023-06-09T15:18:43.459Z,24
2023-06-09T15:21:14.250Z,24
2023-06-09T15:23:44.756Z,29
2023-06-09T15:26:16.221Z,28
2023-06-09T15:28:47.383Z,28
2023-06-09T15:31:20.493Z,22
2023-06-09T15:33:50.740Z,28
2023-06-09T15:36:20.378Z,24
2023-06-09T15:38:56.719Z,20
2023-06-09T15:41:28.520Z,24
2023-06-09T15:44:04.224Z,20
2023-06-09T15:46:37.164Z,23
2023-06-09T15:49:16.669Z,20
2023-06-09T15:51:45.630Z,20
2023-06-09T15:54:15.417Z,20
2023-06-09T15:57:01.397Z,20
2023-06-09T15:59:42.796Z,16
2023-06-09T16:02:21.396Z,21
2023-06-09T16:04:51.698Z,23
2023-06-09T16:07:42.344Z,17
2023-06-09T16:10:12.818Z,22
2023-06-09T16:12:42.409Z,20
2023-06-09T16:15:12.573Z,20
2023-06-09T16:17:43.311Z,17
2023-06-09T16:20:21.079Z,16
2023-06-09T16:22:52.012Z,16
2023-06-09T16:25:22.395Z,18
2023-06-09T16:27:52.707Z,19
2023-06-09T16:30:23.213Z,13
2023-06-09T16:32:53.710Z,18
2023-06-09T16:35:24.296Z,16
2023-06-09T16:37:55.365Z,16
2023-06-09T16:40:26.491Z,15
2023-06-09T16:42:59.060Z,12
2023-06-09T16:45:30.587Z,12
2023-06-09T16:48:00.762Z,13
2023-06-09T16:50:31.093Z,12
2023-06-09T16:53:01.620Z,12
2023-06-09T16:55:32.116Z,12
2023-06-09T16:58:03.743Z,16
2023-06-09T17:00:35.416Z,20
2023-06-09T17:03:06.512Z,25
2023-06-09T17:05:38.959Z,20
2023-06-09T17:08:09.206Z,20
2023-06-09T17:10:39.708Z,24
2023-06-09T17:13:10.528Z,24
2023-06-09T17:15:43.871Z,25
2023-06-09T17:18:14.215Z,24
2023-06-09T17:20:49.555Z,24
2023-06-09T17:23:22.997Z,27
2023-06-09T17:25:53.835Z,19
2023-06-09T17:28:24.337Z,20
2023-06-09T17:30:56.789Z,23
2023-06-09T17:33:27.557Z,20
2023-06-09T17:35:57.728Z,16
2023-06-09T17:38:27.802Z,19
2023-06-09T17:40:59.509Z,20
2023-06-09T17:43:29.964Z,16
2023-06-09T17:46:00.130Z,20
2023-06-09T17:48:32.636Z,18
2023-06-09T17:51:06.382Z,20
2023-06-09T17:53:36.857Z,20
2023-06-09T17:56:10.623Z,20
2023-06-09T17:58:42.244Z,17
2023-06-09T18:01:12.762Z,17
2023-06-09T18:03:43.350Z,20
2023-06-09T18:06:14.968Z,20
2023-06-09T18:08:43.847Z,16
2023-06-09T18:11:18.396Z,16
2023-06-09T18:13:49.105Z,16
2023-06-09T18:16:21.131Z,16
2023-06-09T18:18:51.572Z,16
2023-06-09T18:21:22.348Z,17
2023-06-09T18:23:57.093Z,19
2023-06-09T18:26:31.676Z,16
2023-06-09T18:29:02.735Z,19
2023-06-09T18:31:34.468Z,19
2023-06-09T18:34:08.453Z,16
2023-06-09T18:36:42.953Z,16
2023-06-09T18:39:13.457Z,16
2023-06-09T18:41:43.954Z,20
2023-06-09T18:44:19.018Z,20
2023-06-09T18:46:49.312Z,20
2023-06-09T18:49:20.168Z,16
2023-06-09T18:51:50.830Z,20
2023-06-09T18:54:23.580Z,24
2023-06-09T18:57:02.344Z,29
2023-06-09T18:59:33.537Z,25
2023-06-09T19:02:03.989Z,28
2023-06-09T19:04:34.455Z,28
2023-06-09T19:07:04.842Z,24
2023-06-09T19:09:35.321Z,28
2023-06-09T19:12:06.754Z,31
2023-06-09T19:14:37.292Z,26
2023-06-09T19:17:07.845Z,36
2023-06-09T19:19:38.350Z,32
2023-06-09T19:22:08.917Z,31
2023-06-09T19:24:41.231Z,32
2023-06-09T19:27:11.501Z,38
2023-06-09T19:29:41.849Z,28
2023-06-09T19:32:16.079Z,28
2023-06-09T19:34:46.171Z,28
2023-06-09T19:37:25.699Z,36
2023-06-09T19:39:56.284Z,31
2023-06-09T19:42:29.892Z,35
2023-06-09T19:45:00.208Z,31
2023-06-09T19:47:30.785Z,36
2023-06-09T19:50:02.580Z,28
2023-06-09T19:52:33.403Z,28
2023-06-09T19:55:09.259Z,44
2023-06-09T19:57:39.492Z,40
2023-06-09T20:00:13.311Z,39
2023-06-09T20:02:43.846Z,32
2023-06-09T20:05:14.256Z,40
2023-06-09T20:07:46.029Z,28
2023-06-09T20:10:16.312Z,48
2023-06-09T20:12:50.090Z,29
2023-06-09T20:15:37.519Z,28
2023-06-09T20:18:19.333Z,32
2023-06-09T20:23:28.924Z,39
2023-06-09T20:26:04.883Z,44
2023-06-09T20:28:38.247Z,38
2023-06-09T20:31:07.789Z,36
2023-06-09T20:33:48.596Z,36
2023-06-09T20:36:27.690Z,40
2023-06-09T20:39:08.854Z,36
2023-06-09T20:41:43.722Z,36
2023-06-09T20:44:14.185Z,36
2023-06-09T20:46:44.298Z,32
2023-06-09T20:49:14.915Z,36
2023-06-09T20:51:45.357Z,40
2023-06-09T20:54:16.673Z,38
2023-06-09T20:56:47.148Z,36
2023-06-09T20:59:17.770Z,44
2023-06-09T21:01:48.194Z,36
2023-06-09T21:04:19.112Z,40
2023-06-09T21:09:48.117Z,32
2023-06-09T21:12:20.437Z,40
2023-06-09T21:14:51.323Z,31
2023-06-09T21:17:21.725Z,32
2023-06-09T21:19:52.675Z,36
2023-06-09T21:22:22.820Z,37
2023-06-09T21:24:53.482Z,39
2023-06-09T21:27:23.717Z,36
2023-06-09T21:29:54.339Z,40
2023-06-09T21:32:24.455Z,36
2023-06-09T21:34:54.498Z,33
2023-06-09T21:37:25.006Z,32
2023-06-09T21:39:55.368Z,36
2023-06-09T21:42:26.086Z,32
2023-06-09T21:44:56.699Z,36
2023-06-09T21:47:27.313Z,32
2023-06-09T21:49:58.055Z,37
2023-06-09T21:52:28.749Z,40
2023-06-09T21:54:59.038Z,39
2023-06-09T21:57:29.771Z,32
2023-06-09T22:00:00.372Z,34
2023-06-09T22:02:31.141Z,32
2023-06-09T22:05:01.303Z,32
2023-06-09T22:07:31.942Z,32
2023-06-09T22:10:02.614Z,32
2023-06-09T22:12:37.691Z,32
2023-06-09T22:15:11.941Z,32
2023-06-09T22:17:44.863Z,36
2023-06-09T22:20:15.714Z,36
2023-06-09T22:22:46.428Z,32
2023-06-09T22:25:17.109Z,32
2023-06-09T22:27:47.409Z,32
2023-06-09T22:30:17.989Z,32
2023-06-09T22:32:48.401Z,36
2023-06-09T22:35:18.715Z,36
2023-06-09T22:37:49.287Z,36
2023-06-09T22:40:20.880Z,32
2023-06-09T22:42:51.330Z,34
2023-06-09T22:45:22.159Z,32
2023-06-09T22:47:50.981Z,35
2023-06-09T22:50:21.626Z,32
2023-06-09T22:52:52.944Z,36
2023-06-09T22:55:24.281Z,35
2023-06-09T22:57:55.176Z,36
2023-06-09T23:00:25.588Z,32
2023-06-09T23:02:56.130Z,36
2023-06-09T23:05:27.107Z,36
2023-06-09T23:07:58.066Z,33
2023-06-09T23:10:28.747Z,37
2023-06-09T23:13:01.651Z,36
2023-06-09T23:15:32.394Z,37
2023-06-09T23:18:01.809Z,36
2023-06-09T23:20:32.838Z,36
2023-06-09T23:23:04.030Z,39
2023-06-09T23:25:34.756Z,40
2023-06-09T23:28:05.626Z,40
2023-06-09T23:30:36.250Z,40
2023-06-09T23:33:06.925Z,40
2023-06-09T23:35:37.523Z,40
2023-06-09T23:38:06.779Z,42
2023-06-09T23:40:37.453Z,40
2023-06-09T23:43:08.430Z,44
2023-06-09T23:45:39.409Z,40
2023-06-09T23:48:10.454Z,40
2023-06-09T23:50:41.258Z,40
2023-06-09T23:53:12.665Z,36
2023-06-09T23:55:43.710Z,40
2023-06-09T23:58:14.572Z,39
